sensor_id;sensor_type;location;lat;lon;timestamp;pressure;altitude;pressure_sealevel;temperature;humidity
54453;BME280;40363;52.270;10.546;2023-02-16T00:01:21;78168.88;;;-147.06;85.26
54453;BME280;40363;52.270;10.546;2023-02-16T00:03:48;78170.94;;;-147.06;85.37
54453;BME280;40363;52.270;10.546;2023-02-16T00:06:15;78179.16;;;-147.06;85.37
54453;BME280;40363;52.270;10.546;2023-02-16T00:08:44;78187.41;;;-147.06;85.52
54453;BME280;40363;52.270;10.546;2023-02-16T00:11:17;78187.41;;;-147.06;85.82
54453;BME280;40363;52.270;10.546;2023-02-16T00:14:04;78201.78;;;-147.06;86.09
54453;BME280;40363;52.270;10.546;2023-02-16T00:16:33;78205.91;;;-147.06;86.17
54453;BME280;40363;52.270;10.546;2023-02-16T00:19:00;78212.06;;;-147.06;86.25
54453;BME280;40363;52.270;10.546;2023-02-16T00:21:27;78207.94;;;-147.06;86.50
54453;BME280;40363;52.270;10.546;2023-02-16T00:23:53;78203.84;;;-147.06;86.34
54453;BME280;40363;52.270;10.546;2023-02-16T00:26:22;78207.94;;;-147.06;86.28
54453;BME280;40363;52.270;10.546;2023-02-16T00:28:50;78201.78;;;-147.06;86.28
54453;BME280;40363;52.270;10.546;2023-02-16T00:31:22;78212.06;;;-147.06;86.30
54453;BME280;40363;52.270;10.546;2023-02-16T00:33:51;78203.84;;;-147.06;86.18
54453;BME280;40363;52.270;10.546;2023-02-16T00:36:18;78212.06;;;-147.06;86.14
54453;BME280;40363;52.270;10.546;2023-02-16T00:38:45;78216.19;;;-147.06;86.13
54453;BME280;40363;52.270;10.546;2023-02-16T00:41:16;78207.94;;;-147.06;85.87
54453;BME280;40363;52.270;10.546;2023-02-16T00:43:57;78212.06;;;-147.06;85.89
54453;BME280;40363;52.270;10.546;2023-02-16T00:46:25;78207.94;;;-147.06;85.82
54453;BME280;40363;52.270;10.546;2023-02-16T00:48:52;78197.69;;;-147.06;85.54
54453;BME280;40363;52.270;10.546;2023-02-16T00:51:19;78199.72;;;-147.06;85.31
54453;BME280;40363;52.270;10.546;2023-02-16T00:53:45;78207.94;;;-147.06;85.61
54453;BME280;40363;52.270;10.546;2023-02-16T00:56:16;78193.56;;;-147.06;85.17
54453;BME280;40363;52.270;10.546;2023-02-16T00:58:44;78195.63;;;-147.06;85.21
54453;BME280;40363;52.270;10.546;2023-02-16T01:01:13;78203.84;;;-147.06;85.44
54453;BME280;40363;52.270;10.546;2023-02-16T01:03:43;78191.50;;;-147.06;85.21
54453;BME280;40363;52.270;10.546;2023-02-16T01:06:10;78197.69;;;-147.06;85.23
54453;BME280;40363;52.270;10.546;2023-02-16T01:08:55;78201.78;;;-147.06;85.44
54453;BME280;40363;52.270;10.546;2023-02-16T01:11:43;78199.72;;;-147.06;85.61
54453;BME280;40363;52.270;10.546;2023-02-16T01:14:11;78207.94;;;-147.06;85.90
54453;BME280;40363;52.270;10.546;2023-02-16T01:16:40;78207.94;;;-147.06;85.91
54453;BME280;40363;52.270;10.546;2023-02-16T01:19:10;78203.84;;;-147.06;86.01
54453;BME280;40363;52.270;10.546;2023-02-16T01:21:37;78207.94;;;-147.06;85.84
54453;BME280;40363;52.270;10.546;2023-02-16T01:24:05;78205.91;;;-147.06;85.93
54453;BME280;40363;52.270;10.546;2023-02-16T01:26:37;78203.84;;;-147.06;85.93
54453;BME280;40363;52.270;10.546;2023-02-16T01:29:04;78212.06;;;-147.06;86.00
54453;BME280;40363;52.270;10.546;2023-02-16T01:31:31;78207.94;;;-147.06;86.12
54453;BME280;40363;52.270;10.546;2023-02-16T01:33:57;78210.00;;;-147.06;86.27
54453;BME280;40363;52.270;10.546;2023-02-16T01:36:28;78199.72;;;-147.06;86.40
54453;BME280;40363;52.270;10.546;2023-02-16T01:38:56;78203.84;;;-147.06;86.32
54453;BME280;40363;52.270;10.546;2023-02-16T01:41:35;78187.41;;;-147.06;86.36
54453;BME280;40363;52.270;10.546;2023-02-16T01:44:09;78191.50;;;-147.06;86.37
54453;BME280;40363;52.270;10.546;2023-02-16T01:46:42;78183.28;;;-147.06;86.21
54453;BME280;40363;52.270;10.546;2023-02-16T01:49:11;78195.63;;;-147.06;86.38
54453;BME280;40363;52.270;10.546;2023-02-16T01:51:48;78195.63;;;-147.06;86.68
54453;BME280;40363;52.270;10.546;2023-02-16T01:54:25;78191.50;;;-147.06;86.68
54453;BME280;40363;52.270;10.546;2023-02-16T01:56:58;78195.63;;;-147.06;86.80
54453;BME280;40363;52.270;10.546;2023-02-16T01:59:32;78187.41;;;-147.06;86.76
54453;BME280;40363;52.270;10.546;2023-02-16T02:02:11;78191.50;;;-147.06;86.76
54453;BME280;40363;52.270;10.546;2023-02-16T02:04:43;78203.84;;;-147.06;87.24
54453;BME280;40363;52.270;10.546;2023-02-16T02:07:34;78210.00;;;-147.06;87.65
54453;BME280;40363;52.270;10.546;2023-02-16T02:10:08;78207.94;;;-147.06;87.69
54453;BME280;40363;52.270;10.546;2023-02-16T02:12:45;78199.72;;;-147.06;87.63
54453;BME280;40363;52.270;10.546;2023-02-16T02:15:14;78193.56;;;-147.06;87.91
54453;BME280;40363;52.270;10.546;2023-02-16T02:17:42;78199.72;;;-147.06;87.89
54453;BME280;40363;52.270;10.546;2023-02-16T02:20:14;78191.50;;;-147.06;87.64
54453;BME280;40363;52.270;10.546;2023-02-16T02:23:22;78187.41;;;-147.06;87.70
54453;BME280;40363;52.270;10.546;2023-02-16T02:32:03;78170.94;;;-147.06;87.54
54453;BME280;40363;52.270;10.546;2023-02-16T02:34:45;78175.06;;;-147.06;87.56
54453;BME280;40363;52.270;10.546;2023-02-16T02:37:18;78170.94;;;-147.06;87.66
54453;BME280;40363;52.270;10.546;2023-02-16T02:39:52;78177.09;;;-147.06;87.77
54453;BME280;40363;52.270;10.546;2023-02-16T02:42:28;78173.00;;;-147.06;87.83
54453;BME280;40363;52.270;10.546;2023-02-16T02:45:03;78175.06;;;-147.06;87.63
54453;BME280;40363;52.270;10.546;2023-02-16T02:47:38;78173.00;;;-147.06;87.91
54453;BME280;40363;52.270;10.546;2023-02-16T02:50:38;78179.16;;;-147.06;88.14
54453;BME280;40363;52.270;10.546;2023-02-16T02:53:09;78166.81;;;-147.06;88.07
54453;BME280;40363;52.270;10.546;2023-02-16T02:55:42;78173.00;;;-147.06;87.86
54453;BME280;40363;52.270;10.546;2023-02-16T02:58:31;78181.22;;;-147.06;88.11
54453;BME280;40363;52.270;10.546;2023-02-16T03:01:34;78183.28;;;-147.06;88.22
54453;BME280;40363;52.270;10.546;2023-02-16T03:04:03;78187.41;;;-147.06;88.21
54453;BME280;40363;52.270;10.546;2023-02-16T03:06:34;78189.44;;;-147.06;88.23
54453;BME280;40363;52.270;10.546;2023-02-16T03:09:05;78191.50;;;-147.06;88.38
54453;BME280;40363;52.270;10.546;2023-02-16T03:11:33;78191.50;;;-147.06;88.50
54453;BME280;40363;52.270;10.546;2023-02-16T03:14:19;78210.00;;;-147.06;88.58
54453;BME280;40363;52.270;10.546;2023-02-16T03:16:52;78199.72;;;-147.06;88.94
54453;BME280;40363;52.270;10.546;2023-02-16T03:19:39;78199.72;;;-147.06;88.78
54453;BME280;40363;52.270;10.546;2023-02-16T03:22:24;78212.06;;;-147.06;89.28
54453;BME280;40363;52.270;10.546;2023-02-16T03:25:08;78203.84;;;-147.06;89.10
54453;BME280;40363;52.270;10.546;2023-02-16T03:27:54;78210.00;;;-147.06;89.10
54453;BME280;40363;52.270;10.546;2023-02-16T03:30:49;78189.44;;;-147.06;88.88
54453;BME280;40363;52.270;10.546;2023-02-16T03:33:19;78201.78;;;-147.06;89.31
54453;BME280;40363;52.270;10.546;2023-02-16T03:35:46;78207.94;;;-147.06;89.46
54453;BME280;40363;52.270;10.546;2023-02-16T03:38:13;78214.13;;;-147.06;89.48
54453;BME280;40363;52.270;10.546;2023-02-16T03:40:42;78218.22;;;-147.06;89.53
54453;BME280;40363;52.270;10.546;2023-02-16T03:43:09;78218.22;;;-147.06;89.50
54453;BME280;40363;52.270;10.546;2023-02-16T03:45:38;78222.34;;;-147.06;89.74
54453;BME280;40363;52.270;10.546;2023-02-16T03:48:07;78226.47;;;-147.06;89.65
54453;BME280;40363;52.270;10.546;2023-02-16T03:50:35;78218.22;;;-147.06;89.99
54453;BME280;40363;52.270;10.546;2023-02-16T03:53:02;78224.41;;;-147.06;89.94
54453;BME280;40363;52.270;10.546;2023-02-16T03:55:33;78228.53;;;-147.06;90.04
54453;BME280;40363;52.270;10.546;2023-02-16T03:58:00;78228.53;;;-147.06;90.01
54453;BME280;40363;52.270;10.546;2023-02-16T04:00:29;78240.84;;;-147.06;90.15
54453;BME280;40363;52.270;10.546;2023-02-16T04:09:41;78224.41;;;-147.06;90.37
54453;BME280;40363;52.270;10.546;2023-02-16T04:12:08;78234.69;;;-147.06;90.53
54453;BME280;40363;52.270;10.546;2023-02-16T04:14:54;78236.75;;;-147.06;90.71
54453;BME280;40363;52.270;10.546;2023-02-16T04:17:20;78249.09;;;-147.06;90.88
54453;BME280;40363;52.270;10.546;2023-02-16T04:19:47;78242.91;;;-147.06;90.79
54453;BME280;40363;52.270;10.546;2023-02-16T04:22:13;78242.91;;;-147.06;90.87
54453;BME280;40363;52.270;10.546;2023-02-16T04:24:42;78247.03;;;-147.06;90.89
54453;BME280;40363;52.270;10.546;2023-02-16T04:27:08;78242.91;;;-147.06;90.79
54453;BME280;40363;52.270;10.546;2023-02-16T04:29:35;78236.75;;;-147.06;91.01
54453;BME280;40363;52.270;10.546;2023-02-16T04:32:02;78240.84;;;-147.06;90.95
54453;BME280;40363;52.270;10.546;2023-02-16T04:34:29;78242.91;;;-147.06;91.11
54453;BME280;40363;52.270;10.546;2023-02-16T04:36:55;78242.91;;;-147.06;90.87
54453;BME280;40363;52.270;10.546;2023-02-16T04:39:22;78244.97;;;-147.06;91.04
54453;BME280;40363;52.270;10.546;2023-02-16T04:41:50;78249.09;;;-147.06;91.10
54453;BME280;40363;52.270;10.546;2023-02-16T04:44:17;78238.81;;;-147.06;90.95
54453;BME280;40363;52.270;10.546;2023-02-16T04:46:43;78255.25;;;-147.06;91.24
54453;BME280;40363;52.270;10.546;2023-02-16T04:49:10;78261.41;;;-147.06;91.52
54453;BME280;40363;52.270;10.546;2023-02-16T04:51:36;78257.31;;;-147.06;91.80
54453;BME280;40363;52.270;10.546;2023-02-16T04:54:04;78261.41;;;-147.06;91.85
54453;BME280;40363;52.270;10.546;2023-02-16T04:56:31;78261.41;;;-147.06;91.83
54453;BME280;40363;52.270;10.546;2023-02-16T04:58:59;78261.41;;;-147.06;91.95
54453;BME280;40363;52.270;10.546;2023-02-16T05:01:27;78263.47;;;-147.06;92.21
54453;BME280;40363;52.270;10.546;2023-02-16T05:03:55;78265.53;;;-147.06;92.15
54453;BME280;40363;52.270;10.546;2023-02-16T05:06:21;78267.59;;;-147.06;92.23
54453;BME280;40363;52.270;10.546;2023-02-16T05:08:48;78265.53;;;-147.06;92.21
54453;BME280;40363;52.270;10.546;2023-02-16T05:11:15;78261.41;;;-147.06;92.21
54453;BME280;40363;52.270;10.546;2023-02-16T05:14:00;78257.31;;;-147.06;92.30
54453;BME280;40363;52.270;10.546;2023-02-16T05:16:44;78255.25;;;-147.06;92.10
54453;BME280;40363;52.270;10.546;2023-02-16T05:19:11;78247.03;;;-147.06;92.05
54453;BME280;40363;52.270;10.546;2023-02-16T05:21:39;78244.97;;;-147.06;91.83
54453;BME280;40363;52.270;10.546;2023-02-16T05:24:08;78253.19;;;-147.06;92.17
54453;BME280;40363;52.270;10.546;2023-02-16T05:26:36;78249.09;;;-147.06;91.92
54453;BME280;40363;52.270;10.546;2023-02-16T05:29:05;78236.75;;;-147.06;91.55
54453;BME280;40363;52.270;10.546;2023-02-16T05:31:31;78230.56;;;-147.06;91.38
54453;BME280;40363;52.270;10.546;2023-02-16T05:33:58;78234.69;;;-147.06;91.53
54453;BME280;40363;52.270;10.546;2023-02-16T05:36:25;78228.53;;;-147.06;91.28
54453;BME280;40363;52.270;10.546;2023-02-16T05:38:52;78218.22;;;-147.06;91.07
54453;BME280;40363;52.270;10.546;2023-02-16T05:41:19;78212.06;;;-147.06;90.84
54453;BME280;40363;52.270;10.546;2023-02-16T05:43:52;78212.06;;;-147.06;90.64
54453;BME280;40363;52.270;10.546;2023-02-16T05:46:22;78212.06;;;-147.06;90.62
54453;BME280;40363;52.270;10.546;2023-02-16T05:48:49;78212.06;;;-147.06;90.71
54453;BME280;40363;52.270;10.546;2023-02-16T05:51:16;78212.06;;;-147.06;90.62
54453;BME280;40363;52.270;10.546;2023-02-16T05:53:43;78207.94;;;-147.06;90.57
54453;BME280;40363;52.270;10.546;2023-02-16T05:56:10;78201.78;;;-147.06;90.39
54453;BME280;40363;52.270;10.546;2023-02-16T05:58:37;78199.72;;;-147.06;90.57
54453;BME280;40363;52.270;10.546;2023-02-16T06:01:04;78205.91;;;-147.06;90.77
54453;BME280;40363;52.270;10.546;2023-02-16T06:03:33;78203.84;;;-147.06;90.85
54453;BME280;40363;52.270;10.546;2023-02-16T06:06:00;78203.84;;;-147.06;90.89
54453;BME280;40363;52.270;10.546;2023-02-16T06:08:28;78212.06;;;-147.06;90.93
54453;BME280;40363;52.270;10.546;2023-02-16T06:10:55;78216.19;;;-147.06;90.72
54453;BME280;40363;52.270;10.546;2023-02-16T06:13:23;78216.19;;;-147.06;90.96
54453;BME280;40363;52.270;10.546;2023-02-16T06:15:51;78214.13;;;-147.06;91.04
54453;BME280;40363;52.270;10.546;2023-02-16T06:18:18;78224.41;;;-147.06;91.15
54453;BME280;40363;52.270;10.546;2023-02-16T06:20:48;78228.53;;;-147.06;91.23
54453;BME280;40363;52.270;10.546;2023-02-16T06:23:16;78220.28;;;-147.06;91.17
54453;BME280;40363;52.270;10.546;2023-02-16T06:25:43;78234.69;;;-147.06;91.27
54453;BME280;40363;52.270;10.546;2023-02-16T06:28:10;78257.31;;;-147.06;91.22
54453;BME280;40363;52.270;10.546;2023-02-16T06:30:37;78257.31;;;-147.06;91.57
54453;BME280;40363;52.270;10.546;2023-02-16T06:33:04;78242.91;;;-147.06;91.32
54453;BME280;40363;52.270;10.546;2023-02-16T06:35:30;78238.81;;;-147.06;91.47
54453;BME280;40363;52.270;10.546;2023-02-16T06:37:58;78255.25;;;-147.06;91.22
54453;BME280;40363;52.270;10.546;2023-02-16T06:40:25;78257.31;;;-147.06;91.35
54453;BME280;40363;52.270;10.546;2023-02-16T06:42:52;78257.31;;;-147.06;91.27
54453;BME280;40363;52.270;10.546;2023-02-16T06:45:18;78253.19;;;-147.06;91.22
54453;BME280;40363;52.270;10.546;2023-02-16T06:47:45;78257.31;;;-147.06;91.22
54453;BME280;40363;52.270;10.546;2023-02-16T06:50:12;78249.09;;;-147.06;90.98
54453;BME280;40363;52.270;10.546;2023-02-16T06:52:39;78234.69;;;-147.06;90.57
54453;BME280;40363;52.270;10.546;2023-02-16T06:55:07;78234.69;;;-147.06;90.33
54453;BME280;40363;52.270;10.546;2023-02-16T06:57:34;78228.53;;;-147.06;90.06
54453;BME280;40363;52.270;10.546;2023-02-16T07:00:01;78222.34;;;-147.06;89.52
54453;BME280;40363;52.270;10.546;2023-02-16T07:02:28;78207.94;;;-147.06;89.16
54453;BME280;40363;52.270;10.546;2023-02-16T07:04:55;78197.69;;;-147.06;88.75
54453;BME280;40363;52.270;10.546;2023-02-16T07:07:22;78179.16;;;-147.06;88.13
54453;BME280;40363;52.270;10.546;2023-02-16T07:09:49;78166.81;;;-147.06;87.55
54453;BME280;40363;52.270;10.546;2023-02-16T07:12:17;78150.38;;;-147.06;86.76
54453;BME280;40363;52.270;10.546;2023-02-16T07:14:44;78138.03;;;-147.06;86.42
54453;BME280;40363;52.270;10.546;2023-02-16T07:17:10;78127.75;;;-147.06;85.92
54453;BME280;40363;52.270;10.546;2023-02-16T07:19:37;78111.31;;;-147.06;85.20
54453;BME280;40363;52.270;10.546;2023-02-16T07:22:04;78096.91;;;-147.06;84.73
54453;BME280;40363;52.270;10.546;2023-02-16T07:24:30;78098.97;;;-147.06;84.19
54453;BME280;40363;52.270;10.546;2023-02-16T07:26:57;78084.59;;;-147.06;83.87
54453;BME280;40363;52.270;10.546;2023-02-16T07:29:25;78078.41;;;-147.06;83.30
54453;BME280;40363;52.270;10.546;2023-02-16T07:31:52;78066.06;;;-147.06;83.10
54453;BME280;40363;52.270;10.546;2023-02-16T07:34:20;78051.69;;;-147.06;82.41
54453;BME280;40363;52.270;10.546;2023-02-16T07:36:47;78022.91;;;-147.06;81.47
54453;BME280;40363;52.270;10.546;2023-02-16T07:39:14;77985.88;;;-147.06;80.00
54453;BME280;40363;52.270;10.546;2023-02-16T07:41:40;77979.72;;;-147.06;78.97
54453;BME280;40363;52.270;10.546;2023-02-16T07:44:07;77961.22;;;-147.06;78.46
54453;BME280;40363;52.270;10.546;2023-02-16T07:46:35;77950.94;;;-147.06;77.96
54453;BME280;40363;52.270;10.546;2023-02-16T07:49:02;77965.31;;;-147.06;77.61
54453;BME280;40363;52.270;10.546;2023-02-16T07:51:30;77957.09;;;-147.06;77.70
54453;BME280;40363;52.270;10.546;2023-02-16T07:53:56;77932.44;;;-147.06;76.78
54453;BME280;40363;52.270;10.546;2023-02-16T07:56:25;77938.59;;;-147.06;76.60
54453;BME280;40363;52.270;10.546;2023-02-16T07:58:53;77959.16;;;-147.06;77.01
54453;BME280;40363;52.270;10.546;2023-02-16T08:01:20;77957.09;;;-147.06;76.78
54453;BME280;40363;52.270;10.546;2023-02-16T08:03:48;77911.88;;;-147.06;75.73
54453;BME280;40363;52.270;10.546;2023-02-16T08:06:16;77922.16;;;-147.06;75.28
54453;BME280;40363;52.270;10.546;2023-02-16T08:08:43;77885.13;;;-147.06;74.60
54453;BME280;40363;52.270;10.546;2023-02-16T08:11:11;77858.41;;;-147.06;73.55
54453;BME280;40363;52.270;10.546;2023-02-16T08:13:38;77844.00;;;-147.06;73.19
54453;BME280;40363;52.270;10.546;2023-02-16T08:16:09;77819.34;;;-147.06;72.34
54453;BME280;40363;52.270;10.546;2023-02-16T08:18:35;77813.16;;;-147.06;71.32
54453;BME280;40363;52.270;10.546;2023-02-16T08:21:08;77794.66;;;-147.06;70.89
54453;BME280;40363;52.270;10.546;2023-02-16T08:23:39;77774.09;;;-147.06;70.62
54453;BME280;40363;52.270;10.546;2023-02-16T08:26:08;77763.81;;;-147.06;69.83
54453;BME280;40363;52.270;10.546;2023-02-16T08:28:36;77724.75;;;-147.06;68.56
54453;BME280;40363;52.270;10.546;2023-02-16T08:31:04;77745.31;;;-147.06;68.77
54453;BME280;40363;52.270;10.546;2023-02-16T08:33:32;77685.69;;;-147.06;67.71
54453;BME280;40363;52.270;10.546;2023-02-16T08:35:59;77677.47;;;-147.06;66.96
54453;BME280;40363;52.270;10.546;2023-02-16T08:38:27;77626.06;;;-147.06;65.95
54453;BME280;40363;52.270;10.546;2023-02-16T08:40:56;77601.41;;;-147.06;64.94
54453;BME280;40363;52.270;10.546;2023-02-16T08:43:23;77576.72;;;-147.06;64.03
54453;BME280;40363;52.270;10.546;2023-02-16T08:45:50;77599.34;;;-147.06;64.31
54453;BME280;40363;52.270;10.546;2023-02-16T08:48:17;77570.56;;;-147.06;63.35
54453;BME280;40363;52.270;10.546;2023-02-16T08:50:44;77554.13;;;-147.06;62.65
54453;BME280;40363;52.270;10.546;2023-02-16T08:53:18;77556.19;;;-147.06;62.35
54453;BME280;40363;52.270;10.546;2023-02-16T08:55:52;77521.22;;;-147.06;61.80
54453;BME280;40363;52.270;10.546;2023-02-16T08:58:19;77531.50;;;-147.06;61.85
54453;BME280;40363;52.270;10.546;2023-02-16T09:00:46;77482.16;;;-147.06;60.91
54453;BME280;40363;52.270;10.546;2023-02-16T09:03:14;77447.22;;;-147.06;60.05
54453;BME280;40363;52.270;10.546;2023-02-16T09:05:43;77449.28;;;-147.06;59.65
54453;BME280;40363;52.270;10.546;2023-02-16T09:08:10;77430.75;;;-147.06;59.63
54453;BME280;40363;52.270;10.546;2023-02-16T09:10:37;77408.16;;;-147.06;59.22
54453;BME280;40363;52.270;10.546;2023-02-16T09:13:05;77461.59;;;-147.06;60.52
54453;BME280;40363;52.270;10.546;2023-02-16T09:15:34;77478.06;;;-147.06;60.65
54453;BME280;40363;52.270;10.546;2023-02-16T09:18:01;77455.44;;;-147.06;60.03
54453;BME280;40363;52.270;10.546;2023-02-16T09:20:28;77434.88;;;-147.06;59.61
54453;BME280;40363;52.270;10.546;2023-02-16T09:22:55;77463.66;;;-147.06;60.17
54453;BME280;40363;52.270;10.546;2023-02-16T09:25:22;77502.72;;;-147.06;60.90
54453;BME280;40363;52.270;10.546;2023-02-16T09:27:49;77521.22;;;-147.06;60.90
54453;BME280;40363;52.270;10.546;2023-02-16T09:30:18;77445.16;;;-147.06;59.79
54453;BME280;40363;52.270;10.546;2023-02-16T09:32:45;77439.00;;;-147.06;59.77
54453;BME280;40363;52.270;10.546;2023-02-16T09:35:12;77393.75;;;-147.06;58.46
54453;BME280;40363;52.270;10.546;2023-02-16T09:37:38;77408.16;;;-147.06;58.33
54453;BME280;40363;52.270;10.546;2023-02-16T09:40:06;77375.25;;;-147.06;57.72
54453;BME280;40363;52.270;10.546;2023-02-16T09:42:43;77360.88;;;-147.06;57.32
54453;BME280;40363;52.270;10.546;2023-02-16T09:45:16;77367.03;;;-147.06;57.21
54453;BME280;40363;52.270;10.546;2023-02-16T09:47:47;77358.81;;;-147.06;57.39
54453;BME280;40363;52.270;10.546;2023-02-16T09:50:17;77311.53;;;-147.06;56.73
54453;BME280;40363;52.270;10.546;2023-02-16T09:52:51;77323.88;;;-147.06;56.68
54453;BME280;40363;52.270;10.546;2023-02-16T09:55:19;77303.31;;;-147.06;56.40
54453;BME280;40363;52.270;10.546;2023-02-16T09:57:59;77295.06;;;-147.06;56.23
54453;BME280;40363;52.270;10.546;2023-02-16T10:00:39;77258.06;;;-147.06;56.06
54453;BME280;40363;52.270;10.546;2023-02-16T10:03:25;77258.06;;;-147.06;55.75
54453;BME280;40363;52.270;10.546;2023-02-16T10:05:57;77196.41;;;-147.06;55.27
54453;BME280;40363;52.270;10.546;2023-02-16T10:08:29;77175.84;;;-147.06;54.88
54453;BME280;40363;52.270;10.546;2023-02-16T10:11:02;77214.91;;;-147.06;54.69
54453;BME280;40363;52.270;10.546;2023-02-16T10:13:36;77204.63;;;-147.06;54.28
54453;BME280;40363;52.270;10.546;2023-02-16T10:16:11;77208.75;;;-147.06;54.25
54453;BME280;40363;52.270;10.546;2023-02-16T10:18:42;77188.19;;;-147.06;53.98
54453;BME280;40363;52.270;10.546;2023-02-16T10:21:16;77175.84;;;-147.06;53.65
54453;BME280;40363;52.270;10.546;2023-02-16T10:23:48;77202.56;;;-147.06;53.99
54453;BME280;40363;52.270;10.546;2023-02-16T10:26:21;77200.50;;;-147.06;54.10
54453;BME280;40363;52.270;10.546;2023-02-16T10:28:52;77210.78;;;-147.06;54.15
54453;BME280;40363;52.270;10.546;2023-02-16T10:31:23;77175.84;;;-147.06;54.15
54453;BME280;40363;52.270;10.546;2023-02-16T10:34:16;77136.78;;;-147.06;53.42
54453;BME280;40363;52.270;10.546;2023-02-16T10:36:57;77136.78;;;-147.06;53.47
54453;BME280;40363;52.270;10.546;2023-02-16T10:39:33;77134.72;;;-147.06;53.54
54453;BME280;40363;52.270;10.546;2023-02-16T10:42:10;77126.50;;;-147.06;53.68
54453;BME280;40363;52.270;10.546;2023-02-16T10:44:45;77130.63;;;-147.06;53.39
54453;BME280;40363;52.270;10.546;2023-02-16T10:47:27;77184.06;;;-147.06;53.88
54453;BME280;40363;52.270;10.546;2023-02-16T10:49:57;77196.41;;;-147.06;54.63
54453;BME280;40363;52.270;10.546;2023-02-16T10:52:23;77231.34;;;-147.06;54.94
54453;BME280;40363;52.270;10.546;2023-02-16T10:54:50;77206.69;;;-147.06;54.70
54453;BME280;40363;52.270;10.546;2023-02-16T10:57:24;77175.84;;;-147.06;53.79
54453;BME280;40363;52.270;10.546;2023-02-16T10:59:52;77225.19;;;-147.06;54.60
54453;BME280;40363;52.270;10.546;2023-02-16T11:02:23;77274.53;;;-147.06;55.62
54453;BME280;40363;52.270;10.546;2023-02-16T11:04:51;77293.03;;;-147.06;56.30
54453;BME280;40363;52.270;10.546;2023-02-16T11:07:21;77282.75;;;-147.06;56.45
54453;BME280;40363;52.270;10.546;2023-02-16T11:09:50;77297.13;;;-147.06;57.08
54453;BME280;40363;52.270;10.546;2023-02-16T11:12:25;77311.53;;;-147.06;57.34
54453;BME280;40363;52.270;10.546;2023-02-16T11:14:54;77332.09;;;-147.06;57.79
54453;BME280;40363;52.270;10.546;2023-02-16T11:17:22;77344.41;;;-147.06;58.10
54453;BME280;40363;52.270;10.546;2023-02-16T11:19:52;77352.66;;;-147.06;58.46
54453;BME280;40363;52.270;10.546;2023-02-16T11:22:32;77362.91;;;-147.06;58.88
54453;BME280;40363;52.270;10.546;2023-02-16T11:25:21;77379.38;;;-147.06;59.35
54453;BME280;40363;52.270;10.546;2023-02-16T11:27:49;77397.88;;;-147.06;59.61
54453;BME280;40363;52.270;10.546;2023-02-16T11:30:18;77406.09;;;-147.06;60.28
54453;BME280;40363;52.270;10.546;2023-02-16T11:32:48;77412.25;;;-147.06;59.87
54453;BME280;40363;52.270;10.546;2023-02-16T11:35:16;77406.09;;;-147.06;59.92
54453;BME280;40363;52.270;10.546;2023-02-16T11:37:45;77410.22;;;-147.06;60.00
54453;BME280;40363;52.270;10.546;2023-02-16T11:40:19;77393.75;;;-147.06;60.02
54453;BME280;40363;52.270;10.546;2023-02-16T11:42:50;77397.88;;;-147.06;59.92
54453;BME280;40363;52.270;10.546;2023-02-16T11:45:24;77414.31;;;-147.06;60.21
54453;BME280;40363;52.270;10.546;2023-02-16T11:47:53;77416.38;;;-147.06;60.57
54453;BME280;40363;52.270;10.546;2023-02-16T11:50:23;77414.31;;;-147.06;60.62
54453;BME280;40363;52.270;10.546;2023-02-16T11:52:55;77422.53;;;-147.06;60.89
54453;BME280;40363;52.270;10.546;2023-02-16T11:55:25;77412.25;;;-147.06;60.95
54453;BME280;40363;52.270;10.546;2023-02-16T11:57:53;77410.22;;;-147.06;60.93
54453;BME280;40363;52.270;10.546;2023-02-16T12:00:23;77383.47;;;-147.06;61.22
54453;BME280;40363;52.270;10.546;2023-02-16T12:03:10;77385.53;;;-147.06;60.57
54453;BME280;40363;52.270;10.546;2023-02-16T12:05:52;77387.59;;;-147.06;60.25
54453;BME280;40363;52.270;10.546;2023-02-16T12:08:33;77404.03;;;-147.06;60.58
54453;BME280;40363;52.270;10.546;2023-02-16T12:11:12;77408.16;;;-147.06;60.81
54453;BME280;40363;52.270;10.546;2023-02-16T12:13:48;77401.97;;;-147.06;60.93
54453;BME280;40363;52.270;10.546;2023-02-16T12:16:26;77399.94;;;-147.06;60.91
54453;BME280;40363;52.270;10.546;2023-02-16T12:19:07;77424.59;;;-147.06;60.63
54453;BME280;40363;52.270;10.546;2023-02-16T12:21:40;77439.00;;;-147.06;60.78
54453;BME280;40363;52.270;10.546;2023-02-16T12:24:21;77420.50;;;-147.06;60.77
54453;BME280;40363;52.270;10.546;2023-02-16T12:26:55;77418.44;;;-147.06;60.82
54453;BME280;40363;52.270;10.546;2023-02-16T12:29:33;77424.59;;;-147.06;61.06
54453;BME280;40363;52.270;10.546;2023-02-16T12:32:17;77439.00;;;-147.06;61.46
54453;BME280;40363;52.270;10.546;2023-02-16T12:34:55;77418.44;;;-147.06;61.52
54453;BME280;40363;52.270;10.546;2023-02-16T12:37:30;77418.44;;;-147.06;61.43
54453;BME280;40363;52.270;10.546;2023-02-16T12:40:10;77397.88;;;-147.06;61.46
54453;BME280;40363;52.270;10.546;2023-02-16T12:42:50;77399.94;;;-147.06;62.17
54453;BME280;40363;52.270;10.546;2023-02-16T12:45:21;77406.09;;;-147.06;61.81
54453;BME280;40363;52.270;10.546;2023-02-16T12:47:51;77414.31;;;-147.06;61.43
54453;BME280;40363;52.270;10.546;2023-02-16T12:50:21;77410.22;;;-147.06;61.12
54453;BME280;40363;52.270;10.546;2023-02-16T12:52:54;77410.22;;;-147.06;61.56
54453;BME280;40363;52.270;10.546;2023-02-16T12:55:27;77406.09;;;-147.06;61.62
54453;BME280;40363;52.270;10.546;2023-02-16T12:58:01;77406.09;;;-147.06;62.27
54453;BME280;40363;52.270;10.546;2023-02-16T13:00:38;77422.53;;;-147.06;62.03
54453;BME280;40363;52.270;10.546;2023-02-16T13:03:16;77418.44;;;-147.06;61.95